sensor_id;sensor_type;location;lat;lon;timestamp;pressure;altitude;pressure_sealevel;temperature;humidity
59055;BME280;44845;51.444;7.460;2023-04-15T00:00:10;98955.81;;;7.80;63.00
59055;BME280;44845;51.444;7.460;2023-04-15T00:02:36;98953.19;;;7.80;62.88
59055;BME280;44845;51.444;7.460;2023-04-15T00:05:02;98947.22;;;7.71;63.33
59055;BME280;44845;51.444;7.460;2023-04-15T00:07:27;98950.59;;;7.80;63.07
59055;BME280;44845;51.444;7.460;2023-04-15T00:09:53;98948.03;;;7.76;63.10
59055;BME280;44845;51.444;7.460;2023-04-15T00:12:22;98947.19;;;7.73;63.32
59055;BME280;44845;51.444;7.460;2023-04-15T00:14:47;98950.72;;;7.69;63.62
59055;BME280;44845;51.444;7.460;2023-04-15T00:17:12;98949.91;;;7.63;63.38
59055;BME280;44845;51.444;7.460;2023-04-15T00:19:38;98949.78;;;7.73;62.34
59055;BME280;44845;51.444;7.460;2023-04-15T00:22:05;98954.16;;;7.72;63.22
59055;BME280;44845;51.444;7.460;2023-04-15T00:24:30;98955.81;;;7.80;62.36
59055;BME280;44845;51.444;7.460;2023-04-15T00:26:56;98954.19;;;7.69;62.22
59055;BME280;44845;51.444;7.460;2023-04-15T00:29:22;98950.78;;;7.64;62.31
59055;BME280;44845;51.444;7.460;2023-04-15T00:31:48;98949.00;;;7.66;62.43
59055;BME280;44845;51.444;7.460;2023-04-15T00:34:13;98950.66;;;7.72;62.92
59055;BME280;44845;51.444;7.460;2023-04-15T00:36:39;98952.47;;;7.68;63.20
59055;BME280;44845;51.444;7.460;2023-04-15T00:39:04;98957.13;;;7.36;65.08
59055;BME280;44845;51.444;7.460;2023-04-15T00:41:29;98950.06;;;7.46;64.57
59055;BME280;44845;51.444;7.460;2023-04-15T00:43:55;98946.56;;;7.47;64.56
59055;BME280;44845;51.444;7.460;2023-04-15T00:46:21;98945.81;;;7.32;64.76
59055;BME280;44845;51.444;7.460;2023-04-15T00:48:46;98945.91;;;7.23;65.33
59055;BME280;44845;51.444;7.460;2023-04-15T00:51:12;98954.56;;;7.28;64.73
59055;BME280;44845;51.444;7.460;2023-04-15T00:53:38;98950.19;;;7.34;64.40
59055;BME280;44845;51.444;7.460;2023-04-15T00:56:05;98956.34;;;7.23;64.77
59055;BME280;44845;51.444;7.460;2023-04-15T00:58:30;98954.75;;;7.06;66.04
59055;BME280;44845;51.444;7.460;2023-04-15T01:00:56;98964.16;;;7.23;64.83
59055;BME280;44845;51.444;7.460;2023-04-15T01:03:23;98951.28;;;7.04;65.54
59055;BME280;44845;51.444;7.460;2023-04-15T01:05:48;98943.53;;;6.95;66.17
59055;BME280;44845;51.444;7.460;2023-04-15T01:08:14;98945.25;;;6.99;65.97
59055;BME280;44845;51.444;7.460;2023-04-15T01:10:40;98956.59;;;6.89;66.78
59055;BME280;44845;51.444;7.460;2023-04-15T01:13:05;98954.66;;;7.16;65.69
59055;BME280;44845;51.444;7.460;2023-04-15T01:15:31;98953.00;;;7.08;65.05
59055;BME280;44845;51.444;7.460;2023-04-15T01:17:59;98947.88;;;6.96;65.49
59055;BME280;44845;51.444;7.460;2023-04-15T01:20:26;98952.34;;;6.80;66.20
59055;BME280;44845;51.444;7.460;2023-04-15T01:22:53;98955.78;;;6.83;66.42
59055;BME280;44845;51.444;7.460;2023-04-15T01:25:30;98956.69;;;6.76;66.26
59055;BME280;44845;51.444;7.460;2023-04-15T01:27:57;98949.63;;;6.91;65.96
59055;BME280;44845;51.444;7.460;2023-04-15T01:30:22;98959.28;;;6.79;66.11
59055;BME280;44845;51.444;7.460;2023-04-15T01:32:48;98952.38;;;6.75;66.47
59055;BME280;44845;51.444;7.460;2023-04-15T01:35:13;98955.81;;;6.79;66.27
59055;BME280;44845;51.444;7.460;2023-04-15T01:37:38;98949.75;;;6.75;66.13
59055;BME280;44845;51.444;7.460;2023-04-15T01:40:04;98946.31;;;6.70;66.46
59055;BME280;44845;51.444;7.460;2023-04-15T01:42:30;98942.88;;;6.68;66.26
59055;BME280;44845;51.444;7.460;2023-04-15T01:44:55;98945.47;;;6.71;66.30
59055;BME280;44845;51.444;7.460;2023-04-15T01:47:21;98941.97;;;6.69;66.34
59055;BME280;44845;51.444;7.460;2023-04-15T01:49:46;98941.13;;;6.67;66.47
59055;BME280;44845;51.444;7.460;2023-04-15T01:52:12;98937.66;;;6.66;66.76
59055;BME280;44845;51.444;7.460;2023-04-15T01:54:37;98940.31;;;6.60;67.17
59055;BME280;44845;51.444;7.460;2023-04-15T01:57:02;98949.91;;;6.50;68.04
59055;BME280;44845;51.444;7.460;2023-04-15T01:59:29;98942.94;;;6.52;68.14
59055;BME280;44845;51.444;7.460;2023-04-15T02:05:11;98944.63;;;6.62;67.55
59055;BME280;44845;51.444;7.460;2023-04-15T02:07:36;98946.47;;;6.45;68.48
59055;BME280;44845;51.444;7.460;2023-04-15T02:10:02;98943.84;;;6.45;68.97
59055;BME280;44845;51.444;7.460;2023-04-15T02:12:28;98949.06;;;6.46;68.66
59055;BME280;44845;51.444;7.460;2023-04-15T02:14:53;98949.03;;;6.56;68.25
59055;BME280;44845;51.444;7.460;2023-04-15T02:17:19;98957.72;;;6.50;68.50
59055;BME280;44845;51.444;7.460;2023-04-15T02:19:44;98959.44;;;6.54;68.30
59055;BME280;44845;51.444;7.460;2023-04-15T02:22:09;98958.56;;;6.58;67.66
59055;BME280;44845;51.444;7.460;2023-04-15T02:24:39;98961.13;;;6.61;68.04
59055;BME280;44845;51.444;7.460;2023-04-15T02:27:04;98963.72;;;6.64;68.13
59055;BME280;44845;51.444;7.460;2023-04-15T02:29:30;98965.47;;;6.62;68.24
59055;BME280;44845;51.444;7.460;2023-04-15T02:31:56;98962.03;;;6.54;68.67
59055;BME280;44845;51.444;7.460;2023-04-15T02:34:22;98964.66;;;6.56;68.38
59055;BME280;44845;51.444;7.460;2023-04-15T02:36:47;98958.56;;;6.55;68.18
59055;BME280;44845;51.444;7.460;2023-04-15T02:39:13;98974.25;;;6.49;68.82
59055;BME280;44845;51.444;7.460;2023-04-15T02:41:41;98981.16;;;6.50;68.14
59055;BME280;44845;51.444;7.460;2023-04-15T02:44:08;98973.38;;;6.48;68.53
59055;BME280;44845;51.444;7.460;2023-04-15T02:46:33;98976.84;;;6.47;68.75
59055;BME280;44845;51.444;7.460;2023-04-15T02:48:59;98979.47;;;6.42;68.24
59055;BME280;44845;51.444;7.460;2023-04-15T02:51:24;98973.47;;;6.26;69.11
59055;BME280;44845;51.444;7.460;2023-04-15T02:53:50;98984.75;;;6.25;68.76
59055;BME280;44845;51.444;7.460;2023-04-15T02:56:15;98985.63;;;6.19;68.87
59055;BME280;44845;51.444;7.460;2023-04-15T02:58:43;98990.88;;;6.13;69.25
59055;BME280;44845;51.444;7.460;2023-04-15T03:01:09;98990.03;;;6.08;69.40
59055;BME280;44845;51.444;7.460;2023-04-15T03:03:34;98995.22;;;6.08;69.55
59055;BME280;44845;51.444;7.460;2023-04-15T03:06:00;98990.03;;;6.02;69.93
59055;BME280;44845;51.444;7.460;2023-04-15T03:08:25;98993.50;;;5.88;70.27
59055;BME280;44845;51.444;7.460;2023-04-15T03:10:50;99003.94;;;5.94;69.99
59055;BME280;44845;51.444;7.460;2023-04-15T03:13:16;99002.19;;;5.96;70.01
59055;BME280;44845;51.444;7.460;2023-04-15T03:15:42;99010.84;;;6.02;69.85
59055;BME280;44845;51.444;7.460;2023-04-15T03:18:07;99003.94;;;5.91;70.00
59055;BME280;44845;51.444;7.460;2023-04-15T03:20:33;99005.63;;;5.95;69.93
59055;BME280;44845;51.444;7.460;2023-04-15T03:22:58;99003.91;;;5.88;70.17
59055;BME280;44845;51.444;7.460;2023-04-15T03:25:23;99007.41;;;5.87;70.33
59055;BME280;44845;51.444;7.460;2023-04-15T03:27:49;99007.41;;;5.84;70.11
59055;BME280;44845;51.444;7.460;2023-04-15T03:30:14;99005.63;;;5.95;69.20
59055;BME280;44845;51.444;7.460;2023-04-15T03:32:40;99012.63;;;5.78;69.95
59055;BME280;44845;51.444;7.460;2023-04-15T03:35:05;99011.75;;;5.74;69.72
59055;BME280;44845;51.444;7.460;2023-04-15T03:37:31;99013.50;;;5.70;69.91
59055;BME280;44845;51.444;7.460;2023-04-15T03:39:56;99014.38;;;5.72;70.06
59055;BME280;44845;51.444;7.460;2023-04-15T03:42:22;99015.22;;;5.73;69.67
59055;BME280;44845;51.444;7.460;2023-04-15T03:44:47;99016.06;;;5.83;69.68
59055;BME280;44845;51.444;7.460;2023-04-15T03:47:12;99025.66;;;5.67;70.44
59055;BME280;44845;51.444;7.460;2023-04-15T03:49:38;99013.53;;;5.59;70.93
59055;BME280;44845;51.444;7.460;2023-04-15T03:52:03;99023.91;;;5.61;70.72
59055;BME280;44845;51.444;7.460;2023-04-15T03:54:29;99022.19;;;5.54;70.95
59055;BME280;44845;51.444;7.460;2023-04-15T03:56:54;99020.44;;;5.71;70.29
59055;BME280;44845;51.444;7.460;2023-04-15T03:59:20;99020.47;;;5.65;70.79
59055;BME280;44845;51.444;7.460;2023-04-15T04:01:45;99023.06;;;5.52;71.19
59055;BME280;44845;51.444;7.460;2023-04-15T04:04:10;99021.34;;;5.50;70.84
59055;BME280;44845;51.444;7.460;2023-04-15T04:06:36;99020.44;;;5.68;69.91
59055;BME280;44845;51.444;7.460;2023-04-15T04:09:01;99017.84;;;5.49;70.90
59055;BME280;44845;51.444;7.460;2023-04-15T04:11:27;99024.78;;;5.41;71.27
59055;BME280;44845;51.444;7.460;2023-04-15T04:13:52;99026.53;;;5.39;71.26
59055;BME280;44845;51.444;7.460;2023-04-15T04:16:18;99023.06;;;5.43;70.69
59055;BME280;44845;51.444;7.460;2023-04-15T04:18:43;99021.34;;;5.42;70.86
59055;BME280;44845;51.444;7.460;2023-04-15T04:21:08;99031.72;;;5.42;70.92
59055;BME280;44845;51.444;7.460;2023-04-15T04:23:34;99023.94;;;5.33;71.46
59055;BME280;44845;51.444;7.460;2023-04-15T04:25:59;99029.13;;;5.34;71.39
59055;BME280;44845;51.444;7.460;2023-04-15T04:28:25;99026.53;;;5.45;70.69
59055;BME280;44845;51.444;7.460;2023-04-15T04:30:50;99021.31;;;5.39;71.12
59055;BME280;44845;51.444;7.460;2023-04-15T04:33:15;99028.28;;;5.40;71.02
59055;BME280;44845;51.444;7.460;2023-04-15T04:35:41;99035.19;;;5.32;71.42
59055;BME280;44845;51.444;7.460;2023-04-15T04:38:06;99038.66;;;5.35;71.07
59055;BME280;44845;51.444;7.460;2023-04-15T04:40:31;99047.31;;;5.26;71.55
59055;BME280;44845;51.444;7.460;2023-04-15T04:42:57;99042.13;;;5.23;71.65
59055;BME280;44845;51.444;7.460;2023-04-15T04:45:22;99053.41;;;5.25;71.17
59055;BME280;44845;51.444;7.460;2023-04-15T04:47:47;99051.66;;;5.18;71.51
59055;BME280;44845;51.444;7.460;2023-04-15T04:50:13;99060.31;;;5.25;71.20
59055;BME280;44845;51.444;7.460;2023-04-15T04:52:38;99055.13;;;5.22;71.02
59055;BME280;44845;51.444;7.460;2023-04-15T04:55:04;99062.06;;;5.29;70.87
59055;BME280;44845;51.444;7.460;2023-04-15T04:57:30;99057.72;;;5.23;70.82
59055;BME280;44845;51.444;7.460;2023-04-15T04:59:55;99061.19;;;5.28;70.47
59055;BME280;44845;51.444;7.460;2023-04-15T05:02:21;99065.53;;;5.25;70.92
59055;BME280;44845;51.444;7.460;2023-04-15T05:04:47;99073.31;;;5.18;71.21
59055;BME280;44845;51.444;7.460;2023-04-15T05:07:13;99075.03;;;5.12;71.81
59055;BME280;44845;51.444;7.460;2023-04-15T05:09:38;99073.31;;;5.17;71.60
59055;BME280;44845;51.444;7.460;2023-04-15T05:12:03;99075.06;;;5.18;72.16
59055;BME280;44845;51.444;7.460;2023-04-15T05:14:29;99080.22;;;5.12;71.97
59055;BME280;44845;51.444;7.460;2023-04-15T05:16:55;99084.56;;;5.11;71.91
59055;BME280;44845;51.444;7.460;2023-04-15T05:19:20;99088.91;;;5.20;71.41
59055;BME280;44845;51.444;7.460;2023-04-15T05:21:46;99092.41;;;5.25;71.84
59055;BME280;44845;51.444;7.460;2023-04-15T05:24:11;99094.13;;;5.26;71.49
59055;BME280;44845;51.444;7.460;2023-04-15T05:26:36;99088.91;;;5.26;71.60
59055;BME280;44845;51.444;7.460;2023-04-15T05:29:02;99101.06;;;5.27;71.65
59055;BME280;44845;51.444;7.460;2023-04-15T05:31:27;99095.88;;;5.31;71.47
59055;BME280;44845;51.444;7.460;2023-04-15T05:33:52;99096.72;;;5.28;71.88
59055;BME280;44845;51.444;7.460;2023-04-15T05:36:18;99103.66;;;5.37;71.89
59055;BME280;44845;51.444;7.460;2023-04-15T05:38:43;99104.53;;;5.37;72.11
59055;BME280;44845;51.444;7.460;2023-04-15T05:41:08;99108.00;;;5.41;72.32
59055;BME280;44845;51.444;7.460;2023-04-15T05:43:34;99107.16;;;5.40;72.41
59055;BME280;44845;51.444;7.460;2023-04-15T05:45:59;99110.59;;;5.41;72.46
59055;BME280;44845;51.444;7.460;2023-04-15T05:48:25;99110.63;;;5.54;72.26
59055;BME280;44845;51.444;7.460;2023-04-15T05:50:50;99125.38;;;5.58;72.00
59055;BME280;44845;51.444;7.460;2023-04-15T05:53:15;99122.78;;;5.80;71.36
59055;BME280;44845;51.444;7.460;2023-04-15T05:55:41;99114.97;;;5.94;70.92
59055;BME280;44845;51.444;7.460;2023-04-15T05:58:06;99120.19;;;5.92;71.20
59055;BME280;44845;51.444;7.460;2023-04-15T06:00:31;99125.34;;;6.05;70.96
59055;BME280;44845;51.444;7.460;2023-04-15T06:02:57;99132.31;;;6.06;70.73
59055;BME280;44845;51.444;7.460;2023-04-15T06:05:23;99128.84;;;6.01;70.97
59055;BME280;44845;51.444;7.460;2023-04-15T06:07:48;99128.84;;;5.94;71.40
59055;BME280;44845;51.444;7.460;2023-04-15T06:10:14;99128.84;;;6.10;71.09
59055;BME280;44845;51.444;7.460;2023-04-15T06:12:40;99141.84;;;6.05;71.57
59055;BME280;44845;51.444;7.460;2023-04-15T06:15:05;99151.44;;;6.11;71.33
59055;BME280;44845;51.444;7.460;2023-04-15T06:17:31;99142.75;;;6.26;70.78
59055;BME280;44845;51.444;7.460;2023-04-15T06:19:56;99151.41;;;6.27;71.54
59055;BME280;44845;51.444;7.460;2023-04-15T06:22:23;99154.88;;;6.35;71.73
59055;BME280;44845;51.444;7.460;2023-04-15T06:24:49;99160.09;;;6.26;72.28
59055;BME280;44845;51.444;7.460;2023-04-15T06:27:15;99151.41;;;6.33;71.96
59055;BME280;44845;51.444;7.460;2023-04-15T06:29:41;99161.81;;;6.46;71.54
59055;BME280;44845;51.444;7.460;2023-04-15T06:32:06;99162.63;;;6.65;71.05
59055;BME280;44845;51.444;7.460;2023-04-15T06:34:32;99168.69;;;6.75;71.22
59055;BME280;44845;51.444;7.460;2023-04-15T06:36:57;99166.97;;;6.71;71.33
59055;BME280;44845;51.444;7.460;2023-04-15T06:39:23;99170.41;;;6.74;71.51
59055;BME280;44845;51.444;7.460;2023-04-15T06:41:48;99170.44;;;6.73;71.62
59055;BME280;44845;51.444;7.460;2023-04-15T06:44:13;99166.00;;;6.94;71.41
59055;BME280;44845;51.444;7.460;2023-04-15T06:46:39;99178.16;;;6.93;71.48
59055;BME280;44845;51.444;7.460;2023-04-15T06:49:04;99172.00;;;7.12;71.27
59055;BME280;44845;51.444;7.460;2023-04-15T06:51:30;99172.88;;;7.14;70.97
59055;BME280;44845;51.444;7.460;2023-04-15T06:53:55;99173.66;;;7.31;70.20
59055;BME280;44845;51.444;7.460;2023-04-15T06:56:21;99174.63;;;7.12;70.78
59055;BME280;44845;51.444;7.460;2023-04-15T06:58:47;99176.38;;;7.09;71.14
59055;BME280;44845;51.444;7.460;2023-04-15T07:01:13;99171.97;;;7.21;70.76
59055;BME280;44845;51.444;7.460;2023-04-15T07:03:38;99174.53;;;7.32;70.38
59055;BME280;44845;51.444;7.460;2023-04-15T07:06:03;99171.91;;;7.30;70.26
59055;BME280;44845;51.444;7.460;2023-04-15T07:08:31;99179.78;;;7.27;70.46
59055;BME280;44845;51.444;7.460;2023-04-15T07:10:58;99178.00;;;7.28;70.65
59055;BME280;44845;51.444;7.460;2023-04-15T07:13:23;99185.13;;;6.93;71.37
59055;BME280;44845;51.444;7.460;2023-04-15T07:15:49;99180.72;;;7.12;71.82
59055;BME280;44845;51.444;7.460;2023-04-15T07:18:14;99182.47;;;7.02;71.76
59055;BME280;44845;51.444;7.460;2023-04-15T07:20:40;99191.09;;;7.15;71.58
59055;BME280;44845;51.444;7.460;2023-04-15T07:23:05;99184.22;;;7.02;72.06
59055;BME280;44845;51.444;7.460;2023-04-15T07:25:31;99187.69;;;6.99;72.48
59055;BME280;44845;51.444;7.460;2023-04-15T07:27:56;99192.91;;;7.05;72.40
59055;BME280;44845;51.444;7.460;2023-04-15T07:30:22;99189.47;;;6.86;72.63
59055;BME280;44845;51.444;7.460;2023-04-15T07:32:47;99191.16;;;7.01;72.69
59055;BME280;44845;51.444;7.460;2023-04-15T07:35:15;99184.16;;;7.16;72.59
59055;BME280;44845;51.444;7.460;2023-04-15T07:37:40;99194.53;;;7.28;71.96
59055;BME280;44845;51.444;7.460;2023-04-15T07:40:07;99189.44;;;7.05;72.81
59055;BME280;44845;51.444;7.460;2023-04-15T07:42:33;99197.31;;;6.87;73.81
59055;BME280;44845;51.444;7.460;2023-04-15T07:44:59;99198.09;;;7.12;73.34
59055;BME280;44845;51.444;7.460;2023-04-15T07:47:24;99200.63;;;7.29;72.68
59055;BME280;44845;51.444;7.460;2023-04-15T07:49:51;99200.59;;;7.34;72.34
59055;BME280;44845;51.444;7.460;2023-04-15T07:52:17;99206.72;;;7.26;73.04
59055;BME280;44845;51.444;7.460;2023-04-15T07:54:42;99206.63;;;7.45;72.76
59055;BME280;44845;51.444;7.460;2023-04-15T07:57:07;99199.50;;;7.72;71.63
59055;BME280;44845;51.444;7.460;2023-04-15T07:59:33;99202.97;;;7.74;71.68
59055;BME280;44845;51.444;7.460;2023-04-15T08:01:58;99205.50;;;7.87;71.50
59055;BME280;44845;51.444;7.460;2023-04-15T08:04:24;99202.78;;;8.03;70.80
59055;BME280;44845;51.444;7.460;2023-04-15T08:06:49;99200.25;;;7.90;71.07
59055;BME280;44845;51.444;7.460;2023-04-15T08:09:15;99201.91;;;7.99;70.94
59055;BME280;44845;51.444;7.460;2023-04-15T08:11:40;99212.16;;;8.24;70.52
59055;BME280;44845;51.444;7.460;2023-04-15T08:14:06;99209.47;;;8.35;69.50
59055;BME280;44845;51.444;7.460;2023-04-15T08:16:32;99211.38;;;8.14;69.79
59055;BME280;44845;51.444;7.460;2023-04-15T08:18:57;99208.78;;;8.16;70.20
59055;BME280;44845;51.444;7.460;2023-04-15T08:21:22;99201.69;;;8.27;70.10
59055;BME280;44845;51.444;7.460;2023-04-15T08:23:49;99205.97;;;8.36;69.41
59055;BME280;44845;51.444;7.460;2023-04-15T08:26:15;99204.91;;;8.62;68.95
59055;BME280;44845;51.444;7.460;2023-04-15T08:28:42;99215.19;;;8.78;68.68
59055;BME280;44845;51.444;7.460;2023-04-15T08:31:08;99205.75;;;8.64;68.58
59055;BME280;44845;51.444;7.460;2023-04-15T08:33:33;99211.00;;;8.61;68.51
59055;BME280;44845;51.444;7.460;2023-04-15T08:35:59;99212.84;;;8.47;68.79
59055;BME280;44845;51.444;7.460;2023-04-15T08:38:24;99218.19;;;8.34;69.32
59055;BME280;44845;51.444;7.460;2023-04-15T08:40:50;99212.03;;;8.40;68.96
59055;BME280;44845;51.444;7.460;2023-04-15T08:43:23;99219.84;;;8.44;69.19
59055;BME280;44845;51.444;7.460;2023-04-15T08:45:51;99224.22;;;8.41;69.63
59055;BME280;44845;51.444;7.460;2023-04-15T08:48:17;99224.25;;;8.38;69.38
59055;BME280;44845;51.444;7.460;2023-04-15T08:50:43;99224.19;;;8.44;69.45
59055;BME280;44845;51.444;7.460;2023-04-15T08:53:09;99224.25;;;8.36;69.40
59055;BME280;44845;51.444;7.460;2023-04-15T08:55:35;99236.59;;;8.20;69.28
59055;BME280;44845;51.444;7.460;2023-04-15T08:58:04;99228.78;;;8.18;69.90
59055;BME280;44845;51.444;7.460;2023-04-15T09:00:30;99233.06;;;8.27;69.52
59055;BME280;44845;51.444;7.460;2023-04-15T09:02:57;99230.41;;;8.29;69.75
59055;BME280;44845;51.444;7.460;2023-04-15T09:05:23;99242.59;;;8.33;70.12
59055;BME280;44845;51.444;7.460;2023-04-15T09:07:50;99241.56;;;8.50;69.77
59055;BME280;44845;51.444;7.460;2023-04-15T09:10:15;99242.47;;;8.45;69.74
59055;BME280;44845;51.444;7.460;2023-04-15T09:12:41;99246.00;;;8.38;69.80
59055;BME280;44845;51.444;7.460;2023-04-15T09:15:07;99246.03;;;8.37;70.00
59055;BME280;44845;51.444;7.460;2023-04-15T09:17:41;99249.44;;;8.43;69.49
59055;BME280;44845;51.444;7.460;2023-04-15T09:20:12;99262.38;;;8.64;69.45
59055;BME280;44845;51.444;7.460;2023-04-15T09:22:39;99263.44;;;8.39;70.16
59055;BME280;44845;51.444;7.460;2023-04-15T09:25:26;99271.31;;;8.31;70.64
59055;BME280;44845;51.444;7.460;2023-04-15T09:27:57;99266.91;;;8.38;70.79
59055;BME280;44845;51.444;7.460;2023-04-15T09:30:24;99275.56;;;8.47;70.18
59055;BME280;44845;51.444;7.460;2023-04-15T09:32:57;99263.50;;;8.28;70.67
59055;BME280;44845;51.444;7.460;2023-04-15T09:35:24;99279.09;;;8.39;70.93
59055;BME280;44845;51.444;7.460;2023-04-15T09:37:50;99283.44;;;8.45;70.67
59055;BME280;44845;51.444;7.460;2023-04-15T09:40:38;99282.56;;;8.41;70.99
59055;BME280;44845;51.444;7.460;2023-04-15T09:43:06;99283.47;;;8.39;71.18
59055;BME280;44845;51.444;7.460;2023-04-15T09:45:32;99275.41;;;8.65;70.70
59055;BME280;44845;51.444;7.460;2023-04-15T09:47:58;99276.38;;;8.58;70.63
59055;BME280;44845;51.444;7.460;2023-04-15T09:50:26;99281.53;;;8.66;70.62
59055;BME280;44845;51.444;7.460;2023-04-15T09:52:54;99282.44;;;8.57;70.63
59055;BME280;44845;51.444;7.460;2023-04-15T09:55:19;99280.72;;;8.59;70.80
59055;BME280;44845;51.444;7.460;2023-04-15T09:57:45;99279.84;;;8.55;70.75
59055;BME280;44845;51.444;7.460;2023-04-15T10:00:11;99286.03;;;8.45;71.20
59055;BME280;44845;51.444;7.460;2023-04-15T10:02:41;99287.69;;;8.54;71.09
59055;BME280;44845;51.444;7.460;2023-04-15T10:05:13;99296.38;;;8.62;71.13
59055;BME280;44845;51.444;7.460;2023-04-15T10:07:39;99296.34;;;8.65;71.30
59055;BME280;44845;51.444;7.460;2023-04-15T10:10:07;99297.31;;;8.49;71.66
59055;BME280;44845;51.444;7.460;2023-04-15T10:12:36;99306.13;;;8.40;71.75
59055;BME280;44845;51.444;7.460;2023-04-15T10:15:05;99307.78;;;8.50;71.78
59055;BME280;44845;51.444;7.460;2023-04-15T10:17:32;99314.72;;;8.51;71.99
59055;BME280;44845;51.444;7.460;2023-04-15T10:20:03;99307.81;;;8.44;71.91
59055;BME280;44845;51.444;7.460;2023-04-15T10:22:29;99306.91;;;8.50;72.10
59055;BME280;44845;51.444;7.460;2023-04-15T10:24:55;99319.97;;;8.50;72.51
59055;BME280;44845;51.444;7.460;2023-04-15T10:27:22;99320.00;;;8.43;72.72
59055;BME280;44845;51.444;7.460;2023-04-15T10:29:49;99319.22;;;8.32;72.75
59055;BME280;44845;51.444;7.460;2023-04-15T10:32:14;99316.44;;;8.60;72.17
59055;BME280;44845;51.444;7.460;2023-04-15T10:34:40;99318.97;;;8.70;72.18
59055;BME280;44845;51.444;7.460;2023-04-15T10:37:08;99318.09;;;8.69;72.52
59055;BME280;44845;51.444;7.460;2023-04-15T10:39:39;99331.13;;;8.74;71.91
59055;BME280;44845;51.444;7.460;2023-04-15T10:42:13;99323.28;;;8.77;71.65
59055;BME280;44845;51.444;7.460;2023-04-15T10:44:44;99318.97;;;8.70;72.28
59055;BME280;44845;51.444;7.460;2023-04-15T10:47:16;99329.34;;;8.82;71.74
59055;BME280;44845;51.444;7.460;2023-04-15T10:49:56;99324.03;;;8.88;71.44
59055;BME280;44845;51.444;7.460;2023-04-15T10:52:24;99336.38;;;8.72;72.07
59055;BME280;44845;51.444;7.460;2023-04-15T10:55:01;99345.06;;;8.76;72.18
59055;BME280;44845;51.444;7.460;2023-04-15T10:57:33;99333.63;;;8.88;71.84
59055;BME280;44845;51.444;7.460;2023-04-15T11:00:03;99342.56;;;8.62;72.19
59055;BME280;44845;51.444;7.460;2023-04-15T11:02:50;99339.97;;;8.57;72.61
59055;BME280;44845;51.444;7.460;2023-04-15T11:05:17;99344.31;;;8.58;72.91
59055;BME280;44845;51.444;7.460;2023-04-15T11:12:44;99346.94;;;8.55;73.15
59055;BME280;44845;51.444;7.460;2023-04-15T11:15:34;99348.66;;;8.56;73.04
59055;BME280;44845;51.444;7.460;2023-04-15T11:20:36;99358.16;;;8.71;72.58
59055;BME280;44845;51.444;7.460;2023-04-15T11:23:01;99355.63;;;8.57;73.35
59055;BME280;44845;51.444;7.460;2023-04-15T11:25:29;99364.47;;;8.40;74.13
59055;BME280;44845;51.444;7.460;2023-04-15T11:27:55;99356.56;;;8.48;74.30
59055;BME280;44845;51.444;7.460;2023-04-15T11:30:21;99360.94;;;8.48;74.39
59055;BME280;44845;51.444;7.460;2023-04-15T11:32:51;99365.41;;;8.33;74.97
59055;BME280;44845;51.444;7.460;2023-04-15T11:35:17;99373.16;;;8.44;75.10
59055;BME280;44845;51.444;7.460;2023-04-15T11:37:46;99369.63;;;8.50;74.95
59055;BME280;44845;51.444;7.460;2023-04-15T11:40:12;99378.41;;;8.36;75.35
59055;BME280;44845;51.444;7.460;2023-04-15T11:42:39;99370.47;;;8.52;75.65
59055;BME280;44845;51.444;7.460;2023-04-15T11:45:06;99373.97;;;8.49;75.95
59055;BME280;44845;51.444;7.460;2023-04-15T11:47:33;99375.69;;;8.53;76.55
59055;BME280;44845;51.444;7.460;2023-04-15T11:52:51;99387.03;;;8.60;75.54
59055;BME280;44845;51.444;7.460;2023-04-15T11:55:16;99381.81;;;8.51;76.71
59055;BME280;44845;51.444;7.460;2023-04-15T11:57:41;99387.09;;;8.38;78.04
59055;BME280;44845;51.444;7.460;2023-04-15T12:00:07;99380.88;;;8.63;77.65
59055;BME280;44845;51.444;7.460;2023-04-15T12:02:35;99393.94;;;8.64;77.92
59055;BME280;44845;51.444;7.460;2023-04-15T12:05:05;99395.72;;;8.59;77.10
59055;BME280;44845;51.444;7.460;2023-04-15T12:07:30;99392.31;;;8.48;77.40
59055;BME280;44845;51.444;7.460;2023-04-15T12:09:56;99400.94;;;8.62;78.00
59055;BME280;44845;51.444;7.460;2023-04-15T12:12:26;99404.44;;;8.55;76.94
59055;BME280;44845;51.444;7.460;2023-04-15T12:14:51;99413.16;;;8.51;77.51
59055;BME280;44845;51.444;7.460;2023-04-15T12:17:17;99409.66;;;8.61;77.55
59055;BME280;44845;51.444;7.460;2023-04-15T12:19:42;99410.50;;;8.65;76.92
59055;BME280;44845;51.444;7.460;2023-04-15T12:22:11;99411.47;;;8.43;77.51
59055;BME280;44845;51.444;7.460;2023-04-15T12:24:37;99407.97;;;8.48;78.02
59055;BME280;44845;51.444;7.460;2023-04-15T12:27:06;99427.09;;;8.53;77.68
59055;BME280;44845;51.444;7.460;2023-04-15T12:29:33;99423.66;;;8.48;77.51
59055;BME280;44845;51.444;7.460;2023-04-15T12:32:07;99429.69;;;8.62;78.57
59055;BME280;44845;51.444;7.460;2023-04-15T12:34:37;99430.56;;;8.53;78.30
59055;BME280;44845;51.444;7.460;2023-04-15T12:37:05;99438.41;;;8.56;76.92
59055;BME280;44845;51.444;7.460;2023-04-15T12:39:36;99439.31;;;8.52;77.49
59055;BME280;44845;51.444;7.460;2023-04-15T12:42:03;99439.28;;;8.59;78.41
59055;BME280;44845;51.444;7.460;2023-04-15T12:44:29;99448.84;;;8.64;78.09
59055;BME280;44845;51.444;7.460;2023-04-15T12:46:55;99449.75;;;8.54;78.35
59055;BME280;44845;51.444;7.460;2023-04-15T12:49:21;99458.41;;;8.69;78.32
59055;BME280;44845;51.444;7.460;2023-04-15T12:51:51;99454.09;;;8.60;77.46
59055;BME280;44845;51.444;7.460;2023-04-15T12:54:18;99461.91;;;8.64;77.24
59055;BME280;44845;51.444;7.460;2023-04-15T12:56:44;99459.28;;;8.66;77.72
59055;BME280;44845;51.444;7.460;2023-04-15T12:59:10;99457.56;;;8.62;77.70
59055;BME280;44845;51.444;7.460;2023-04-15T13:01:37;99454.97;;;8.62;77.69
59055;BME280;44845;51.444;7.460;2023-04-15T13:04:02;99462.88;;;8.43;78.70
59055;BME280;44845;51.444;7.460;2023-04-15T13:06:27;99468.88;;;8.65;78.19
59055;BME280;44845;51.444;7.460;2023-04-15T13:08:53;99464.50;;;8.66;77.81
59055;BME280;44845;51.444;7.460;2023-04-15T13:11:22;99467.16;;;8.64;78.09
59055;BME280;44845;51.444;7.460;2023-04-15T13:13:47;99474.91;;;8.78;78.50
59055;BME280;44845;51.444;7.460;2023-04-15T13:16:13;99479.25;;;8.78;78.02
59055;BME280;44845;51.444;7.460;2023-04-15T13:18:38;99475.78;;;8.76;77.17